Latest Weather Observations for Cape Sorell

IDT60801

Issued at 8:41 am EST Tuesday 17 September 2019 (issued every 10 minutes, with the page automatically refreshed every 10 minutes)

About weather observations | Map of weather stations | Latest weather observations for TAS | Other Formats
Station Details ID: 097000 Name: CAPE SORELL Lat: -42.20 Lon: 145.17 Height: 19.3 m
Data from the previous 72 hours. | See also: Recent months at Cape Sorell
Date/Time
EST
Temp
°C
App
Temp
°C
Dew
Point
°C
Rel
Hum
%
Delta-T
°C
Wind Press
QNH
hPa
Press
MSL
hPa
Rain since
9am
mm
Dir  Spd
km/h
Gust
km/h
Spd
kts
Gust
kts
17/08:30am 8.9 3.6 4.9 76 1.8 N 22 28 12 15 1027.4 1027.4 0.2
17/08:00am 7.9 2.5 4.3 78 1.6 N 22 26 12 14 1027.1 1027.1 0.2
17/07:30am 7.0 1.1 3.8 80 1.4 NNE 24 30 13 16 1026.7 1026.7 0.2
17/07:00am 6.6 0.7 3.9 83 1.1 NNE 24 28 13 15 1026.4 1026.4 0.2
17/06:30am 6.4 0.5 4.1 85 1.0 NNE 24 30 13 16 1026.0 1026.0 0.2
17/06:00am 5.5 1.2 3.5 87 0.8 NE 15 22 8 12 1025.8 1025.8 0.2
17/05:30am 5.8 1.6 3.8 87 0.8 NE 15 20 8 11 1025.6 1025.6 0.2
17/05:00am 5.5 1.2 3.5 87 0.8 ENE 15 20 8 11 1025.6 1025.6 0.2
17/04:30am 4.6 0.9 2.5 86 0.8 NE 11 15 6 8 1025.6 1025.6 0.2
17/04:00am 5.3 1.0 3.2 86 0.9 NE 15 19 8 10 1025.5 1025.5 0.2
17/03:30am 5.9 1.3 3.6 85 1.0 NE 17 20 9 11 1025.4 1025.4 0.2
17/03:00am 5.6 1.3 3.1 84 1.0 NE 15 20 8 11 1025.6 1025.6 0.2
17/02:30am 4.9 0.8 2.1 82 1.1 ENE 13 17 7 9 1025.7 1025.7 0.2
17/02:00am 4.7 1.6 1.2 78 1.4 E 7 11 4 6 1025.8 1025.8 0.2
17/01:30am 5.9 1.4 2.0 76 1.6 ENE 15 19 8 10 1025.8 1025.8 0.2
17/01:00am 7.0 2.6 2.9 75 1.7 NE 15 19 8 10 1026.2 1026.2 0.2
17/12:30am 5.2 1.7 1.1 75 1.6 NE 9 11 5 6 1026.3 1026.3 0.2
17/12:00am 5.0 1.8 0.6 73 1.7 NE 7 9 4 5 1026.3 1026.3 0.2
 
Date/Time
EST
Temp
°C
App
Temp
°C
Dew
Point
°C
Rel
Hum
%
Delta-T
°C
Wind Press
QNH
hPa
Press
MSL
hPa
Rain since
9am
mm
Dir  Spd
km/h
Gust
km/h
Spd
kts
Gust
kts
16/11:30pm 6.3 4.6 1.6 72 1.9 CALM 0 2 0 1 1026.2 1026.2 0.2
16/11:00pm 6.6 3.6 1.7 71 2.0 WSW 7 19 4 10 1026.2 1026.2 0.2
16/10:30pm 7.7 3.4 1.1 63 2.7 SSW 13 24 7 13 1025.6 1025.6 0.0
16/10:00pm 7.4 2.3 0.8 63 2.6 SW 17 20 9 11 1025.5 1025.5 0.0
16/09:30pm 7.7 1.6 0.2 59 3.0 SW 22 28 12 15 1025.2 1025.2 0.0
16/09:00pm 7.8 1.4 0.8 61 2.8 SW 24 32 13 17 1025.1 1025.1 0.0
16/08:30pm 7.9 1.6 1.5 64 2.6 SW 24 32 13 17 1024.7 1024.7 0.0
16/08:00pm 7.9 1.4 0.6 60 2.9 SW 24 28 13 15 1024.4 1024.4 0.0
16/07:30pm 8.2 1.1 1.4 62 2.8 SW 28 33 15 18 1024.2 1024.2 0.0
16/07:00pm 7.9 0.7 0.4 59 3.0 SSW 28 33 15 18 1023.8 1023.8 0.0
16/06:30pm 7.8 1.0 0.8 61 2.8 SW 26 37 14 20 1023.3 1023.3 0.0
16/06:00pm 7.9 -0.1 0.6 60 2.9 SW 32 41 17 22 1022.8 1022.8 0.0
16/05:30pm 8.5 0.5 1.9 63 2.7 SW 33 41 18 22 1022.5 1022.5 0.0
16/05:00pm 9.4 2.0 1.6 58 3.2 SW 30 41 16 22 1021.9 1021.9 0.0
16/04:30pm 9.0 4.6 2.8 65 2.6 S 15 20 8 11 1021.8 1021.8 0.0
16/04:00pm 9.1 2.1 2.2 62 2.9 SSW 28 35 15 19 1021.4 1021.4 0.0
16/03:30pm 9.5 2.6 2.6 62 2.9 WSW 28 41 15 22 1021.0 1021.0 0.0
16/03:05pm 9.4 2.0 1.6 58 3.2 SW 30 48 16 26 1020.7 1020.7 0.0
16/03:00pm 9.5 2.0 1.2 56 3.4 SSW 30 35 16 19 1020.7 1020.7 0.0
16/02:30pm 10.0 2.2 3.1 62 3.0 SSW 33 39 18 21 1020.4 1020.4 0.0
16/02:00pm 10.0 2.9 3.5 64 2.8 SSW 30 37 16 20 1020.0 1020.0 0.0
16/01:30pm 10.4 1.8 2.7 59 3.3 SSW 37 46 20 25 1019.5 1019.5 0.0
16/01:00pm 10.8 2.0 1.6 53 3.9 SW 37 44 20 24 1019.1 1019.1 0.0
16/12:30pm 10.5 1.9 2.8 59 3.3 SSW 37 44 20 24 1018.8 1018.8 0.0
16/12:00pm 10.8 3.8 4.3 64 2.9 SW 30 35 16 19 1018.8 1018.8 0.0
16/11:30am 9.8 2.4 4.2 68 2.5 SSW 32 39 17 21 1018.4 1018.4 0.0
16/11:00am 9.0 -0.5 3.8 70 2.3 SW 43 54 23 29 1018.0 1018.0 0.0
16/10:30am 9.1 -1.4 3.9 70 2.3 SSW 48 56 26 30 1017.5 1017.5 0.0
16/10:00am 8.6 -1.6 3.4 70 2.2 SW 46 56 25 30 1017.2 1017.2 0.0
16/09:48am 8.2 1.1 3.5 72 2.0 SW 30 50 16 27 1017.0 1017.0 0.0
16/09:30am 8.1 0.4 3.6 73 1.9 SSW 33 39 18 21 1016.9 1016.9 0.0
16/09:16am 7.4 -2.8 3.1 74 1.8 SSW 46 57 25 31 1016.8 1016.8 0.0
16/09:00am 7.3 -5.8 3.0 74 1.8 SSW 61 72 33 39 1016.1 1016.1 6.0
16/08:30am 7.9 -2.9 3.9 76 1.7 SW 50 57 27 31 1015.2 1015.3 6.0
16/08:00am 7.1 -2.3 4.4 83 1.2 SW 43 54 23 29 1014.9 1015.0 6.0
16/07:30am 6.3 -3.7 4.1 86 0.9 SSW 46 54 25 29 1014.6 1014.7 6.0
16/07:01am 7.0 -0.5 4.7 85 1.0 SW 33 56 18 30 1014.2 1014.3 5.4
16/07:00am 7.0 -0.3 4.7 85 1.0 SW 32 43 17 23 1014.3 1014.4 5.4
16/06:30am 6.1 -4.8 3.8 85 1.0 SSW 50 61 27 33 1013.7 1013.8 5.4
16/06:27am 6.2 -5.4 3.7 84 1.1 SW 54 74 29 40 1013.7 1013.8 5.4
16/06:00am 7.1 -4.7 4.8 85 1.0 SSW 56 63 30 34 1012.5 1012.6 5.4
16/05:39am 6.5 -3.9 4.0 84 1.1 SW 48 74 26 40 1012.1 1012.2 5.2
16/05:36am 7.3 -2.6 5.0 85 1.0 SW 46 74 25 40 1011.4 1011.5 5.2
16/05:34am 7.8 -1.4 5.4 85 1.1 SW 43 61 23 33 1011.7 1011.8 5.2
16/05:30am 7.4 -2.1 5.0 85 1.1 SW 44 50 24 27 1011.9 1012.0 5.2
16/05:00am 7.4 -3.9 5.5 88 0.8 SW 54 67 29 36 1011.2 1011.3 5.2
16/04:34am 7.1 -4.8 5.3 88 0.8 SW 57 78 31 42 1010.2 1010.3 5.2
16/04:30am 7.0 -4.7 5.2 88 0.8 SW 56 69 30 37 1010.6 1010.7 5.2
16/04:00am 6.2 -6.3 3.9 85 1.0 WSW 59 80 32 43 1009.7 1009.8 5.0
16/03:30am 6.8 -5.5 3.4 79 1.4 SW 57 82 31 44 1009.3 1009.4 4.6
16/03:27am 8.4 -3.4 4.8 78 1.6 SW 56 76 30 41 1008.7 1008.8 4.4
16/03:00am 8.6 -3.6 5.4 80 1.4 WSW 59 74 32 40 1008.5 1008.6 4.4
16/02:30am 8.7 -3.8 5.8 82 1.3 WSW 61 76 33 41 1008.0 1008.1 4.4
16/02:00am 8.8 -2.9 6.3 84 1.2 WSW 57 76 31 41 1007.3 1007.4 4.4
16/01:40am 8.5 -1.2 6.0 84 1.1 W 46 67 25 36 1007.8 1007.9 4.4
16/01:30am 8.3 -1.0 5.8 84 1.1 W 44 61 24 33 1007.6 1007.7 4.4
16/01:08am 9.2 -1.5 6.3 82 1.3 WNW 52 78 28 42 1007.4 1007.5 3.6
16/01:00am 9.5 -1.2 6.6 82 1.4 W 52 67 28 36 1007.1 1007.2 3.6
16/12:31am 9.2 0.7 7.0 86 1.0 W 41 61 22 33 1007.1 1007.2 3.6
16/12:30am 9.2 0.7 7.0 86 1.0 W 41 54 22 29 1007.0 1007.1 3.6
16/12:02am 9.2 0.4 7.2 87 0.9 W 43 74 23 40 1007.2 1007.3 3.4
16/12:00am 9.3 0.5 7.3 87 0.9 W 43 57 23 31 1007.3 1007.4 3.4
 
Date/Time
EST
Temp
°C
App
Temp
°C
Dew
Point
°C
Rel
Hum
%
Delta-T
°C
Wind Press
QNH
hPa
Press
MSL
hPa
Rain since
9am
mm
Dir  Spd
km/h
Gust
km/h
Spd
kts
Gust
kts
15/11:55pm 9.4 0.1 7.5 88 0.9 WNW 46 57 25 31 1006.9 1006.9 3.4
15/11:47pm 9.4 2.2 7.5 88 0.9 WNW 35 56 19 30 1007.1 1007.2 3.4
15/11:33pm 8.3 0.0 6.1 86 1.0 W 39 57 21 31 1007.3 1007.4 3.0
15/11:30pm 8.6 0.4 6.4 86 1.0 W 39 56 21 30 1007.2 1007.3 2.8
15/11:00pm 9.1 2.1 6.7 85 1.1 W 33 44 18 24 1007.6 1007.7 2.6
15/10:41pm 9.7 1.1 6.4 80 1.5 WNW 41 54 22 29 1007.8 1007.9 1.8
15/10:30pm 10.0 1.5 6.9 81 1.5 NW 41 52 22 28 1007.6 1007.7 1.6
15/10:00pm 9.7 1.2 7.0 83 1.3 WNW 41 50 22 27 1007.9 1008.0 1.6
15/09:30pm 9.8 1.5 7.6 86 1.1 WNW 41 50 22 27 1008.0 1008.1 1.6
15/09:08pm 9.7 3.7 7.1 84 1.2 WNW 28 50 15 27 1008.4 1008.5 1.4
15/09:00pm 9.1 3.7 6.2 82 1.3 NW 24 44 13 24 1008.6 1008.7 1.2
15/08:30pm 10.2 3.3 7.1 81 1.5 NW 33 43 18 23 1008.8 1008.9 0.6
15/08:00pm 9.9 1.7 6.6 80 1.5 WNW 39 46 21 25 1008.8 1008.9 0.6
15/07:30pm 10.0 3.4 6.2 77 1.8 WNW 30 44 16 24 1009.0 1009.1 0.4
15/07:00pm 10.3 5.2 6.1 75 2.0 WNW 22 28 12 15 1009.1 1009.2 0.2
15/06:30pm 10.3 4.8 6.1 75 1.9 NW 24 33 13 18 1009.3 1009.4 0.2
15/06:00pm 10.7 5.2 6.1 73 2.1 WNW 24 30 13 16 1009.4 1009.5 0.0
15/05:30pm 10.7 5.7 6.3 74 2.1 WNW 22 32 12 17 1009.2 1009.3 0.0
15/05:00pm 11.3 6.7 6.6 73 2.2 NW 20 26 11 14 1009.2 1009.3 0.0
15/04:30pm 11.6 7.2 6.5 71 2.4 NNW 19 26 10 14 1009.2 1009.3 0.0
15/04:00pm 12.8 8.5 6.8 67 2.9 NW 19 22 10 12 1009.3 1009.4 0.0
15/03:30pm 13.5 10.0 7.3 66 3.0 NW 15 20 8 11 1009.5 1009.6 0.0
15/03:00pm 12.6 8.5 6.4 66 3.0 WNW 17 24 9 13 1009.9 1010.0 0.0
15/02:30pm 12.3 7.8 6.1 66 2.9 WNW 19 24 10 13 1010.3 1010.4 0.0
15/02:00pm 14.7 10.9 7.7 63 3.5 NW 17 20 9 11 1010.6 1010.7 0.0
15/01:30pm 13.1 9.1 6.7 65 3.1 WNW 17 20 9 11 1010.7 1010.8 0.0
15/01:00pm 13.8 10.5 8.0 68 2.9 WNW 15 20 8 11 1011.0 1011.1 0.0
15/12:30pm 13.6 9.9 8.0 69 2.8 W 17 20 9 11 1011.1 1011.2 0.0
15/12:00pm 13.4 9.7 7.8 69 2.8 W 17 24 9 13 1011.6 1011.7 0.0
15/11:30am 13.8 9.7 8.0 68 2.9 WNW 19 24 10 13 1012.1 1012.2 0.0
15/11:00am 14.6 11.7 9.6 72 2.6 NNW 15 19 8 10 1012.6 1012.7 0.0
15/10:30am 13.3 10.2 9.0 75 2.2 NW 15 19 8 10 1012.8 1012.9 0.0
15/10:00am 11.8 8.1 8.1 78 1.8 WNW 17 20 9 11 1012.8 1012.9 0.0
15/09:30am 11.8 9.4 8.6 81 1.6 WNW 11 15 6 8 1013.0 1013.1 0.0
15/09:00am 11.5 9.2 8.9 84 1.3 WNW 11 15 6 8 1013.0 1013.1 4.2
15/08:30am 10.8 7.6 8.6 86 1.1 W 15 19 8 10 1013.1 1013.2 4.2
15/08:00am 10.3 6.7 8.4 88 0.9 W 17 24 9 13 1013.2 1013.3 4.2
15/07:30am 10.1 6.5 8.4 89 0.8 WSW 17 20 9 11 1013.2 1013.3 4.2
15/07:00am 9.5 5.8 7.9 90 0.8 WSW 17 20 9 11 1013.2 1013.3 4.2
15/06:30am 9.7 4.8 8.5 92 0.6 WSW 24 32 13 17 1012.8 1012.9 4.2
15/06:00am 10.1 4.6 9.0 93 0.5 WSW 28 33 15 18 1012.7 1012.8 4.2
15/05:30am 10.5 5.2 9.7 95 0.4 WSW 28 35 15 19 1012.1 1012.2 4.2
15/05:00am 10.9 6.0 10.1 95 0.4 WSW 26 33 14 18 1011.6 1011.7 4.2
15/04:30am 11.5 6.9 10.9 96 0.3 W 26 32 14 17 1011.4 1011.5 4.2
15/04:00am 11.7 7.1 10.9 95 0.4 WNW 26 33 14 18 1010.9 1011.0 4.2
15/03:30am 11.9 7.3 11.1 95 0.4 WNW 26 35 14 19 1010.8 1010.9 4.2
15/03:00am 12.0 7.1 11.2 95 0.4 NW 28 35 15 19 1011.0 1011.1 4.0
15/02:30am 12.0 7.4 11.1 94 0.5 NW 26 35 14 19 1011.1 1011.2 4.0
15/02:00am 12.0 6.6 10.9 93 0.6 NNW 30 39 16 21 1011.2 1011.3 3.6
15/01:30am 11.8 6.7 10.5 92 0.7 NNW 28 41 15 22 1011.4 1011.5 3.0
15/01:00am 11.8 4.9 10.4 91 0.7 NNW 37 48 20 26 1011.5 1011.6 1.2
15/12:30am 11.6 2.8 9.5 87 1.1 N 46 59 25 32 1011.5 1011.6 0.8
15/12:00am 12.0 2.7 9.0 82 1.5 N 48 57 26 31 1011.8 1011.9 0.2
 
Date/Time
EST
Temp
°C
App
Temp
°C
Dew
Point
°C
Rel
Hum
%
Delta-T
°C
Wind Press
QNH
hPa
Press
MSL
hPa
Rain since
9am
mm
Dir  Spd
km/h
Gust
km/h
Spd
kts
Gust
kts
14/11:30pm 12.0 2.5 8.5 79 1.7 N 48 65 26 35 1012.3 1012.4 0.2
14/11:00pm 11.9 1.5 7.8 76 2.0 N 52 61 28 33 1012.9 1013.0 0.2
14/10:30pm 11.8 2.8 7.1 73 2.3 N 44 56 24 30 1013.5 1013.6 0.2
14/10:00pm 11.5 1.8 7.4 76 2.0 N 48 57 26 31 1013.9 1014.0 0.2
14/09:30pm 11.8 3.1 7.7 76 2.0 N 43 50 23 27 1014.5 1014.6 0.2
14/09:00pm 11.2 2.5 8.4 83 1.4 N 44 54 24 29 1014.5 1014.6 0.2
14/08:30pm 11.3 2.3 8.7 84 1.3 N 46 59 25 32 1014.5 1014.6 0.2
14/08:00pm 11.3 2.6 8.5 83 1.4 N 44 56 24 30 1015.1 1015.2 0.2
14/07:30pm 11.2 2.5 8.4 83 1.4 N 44 57 24 31 1015.3 1015.4 0.2
14/07:00pm 11.4 3.6 8.3 81 1.5 NNW 39 52 21 28 1016.1 1016.1 0.2
14/06:30pm 11.3 1.7 7.8 79 1.7 N 48 59 26 32 1015.2 1015.3 0.2
14/06:00pm 11.2 2.2 7.3 77 1.9 N 44 56 24 30 1015.6 1015.7 0.2
14/05:30pm 11.3 2.2 7.0 75 2.1 N 44 56 24 30 1016.4 1016.4 0.2
14/05:00pm 11.3 4.5 6.8 74 2.1 NNW 32 50 17 27 1017.1 1017.1 0.2
14/04:57pm 11.5 4.7 7.0 74 2.1 NNW 32 50 17 27 1017.3 1017.3 0.2
14/04:30pm 11.7 4.7 7.0 73 2.2 NNW 33 46 18 25 1017.6 1017.6 0.2
14/04:00pm 12.0 4.6 6.9 71 2.4 NNW 35 44 19 24 1017.7 1017.7 0.2
14/03:30pm 12.0 5.0 6.7 70 2.5 NNW 33 43 18 23 1017.9 1017.9 0.2
14/03:00pm 11.7 4.6 6.4 70 2.5 N 33 43 18 23 1018.1 1018.1 0.2
14/02:30pm 11.9 4.8 6.2 68 2.7 N 33 43 18 23 1018.2 1018.2 0.2
14/02:00pm 12.0 5.7 5.6 65 3.0 NNW 28 35 15 19 1019.2 1019.2 0.2
14/01:30pm 12.8 6.8 5.5 61 3.4 NNW 26 32 14 17 1019.8 1019.8 0.2
14/01:00pm 13.8 8.3 7.6 66 3.0 NW 26 32 14 17 1020.1 1020.1 0.2
14/12:30pm 14.4 10.4 6.5 59 3.8 NNW 17 22 9 12 1020.5 1020.5 0.2
14/12:00pm 13.8 10.1 6.4 61 3.5 NW 15 24 8 13 1020.7 1020.7 0.2
14/11:30am 13.7 10.1 6.8 63 3.3 NNW 15 22 8 12 1020.9 1020.9 0.2
14/11:00am 14.1 10.9 8.3 68 2.9 NW 15 20 8 11 1021.1 1021.1 0.0
14/10:30am 12.9 9.3 6.9 67 2.9 W 15 20 8 11 1021.4 1021.4 0.0
14/10:00am 12.3 8.8 7.0 70 2.5 W 15 19 8 10 1021.4 1021.4 0.0
14/09:30am 11.9 8.9 6.0 67 2.8 W 11 17 6 9 1021.7 1021.7 0.0
14/09:00am 11.1 7.6 5.4 68 2.6 WSW 13 19 7 10 1021.7 1021.7 7.6

Other formats

Comma delimited format used in spreadsheet applications
http://www.bom.gov.au/fwo/IDT60801/IDT60801.94974.axf

JavaScript Object Notation format (JSON) in row-major order
http://www.bom.gov.au/fwo/IDT60801/IDT60801.94974.json

Data quality

Most of these data are generated automatically and are frequently updated. Quality checks on data are not normally performed. It is possible for incorrect values to appear. Refer to information at About Latest Weather Observations and please check the disclaimer before using these data.